SAZA

Details ICAO SAZA
Name Azul
Region Argentina
Timezone America/Argentina/Buenos_Aires (UTC-3.0)
Plans Departing 7
Arriving 2
Stats Elevation 478 ft / 146 m (AMSL)
Location -36.846325° -59.881127°
Runways 2
Magnetic Variation 6.285° W
Sunrise 2017-12-17 08:36:43 UTC / 2017-12-17 05:36:43 Local
Sunset 2017-12-17 23:17:28 UTC / 2017-12-17 20:17:28 Local
Advertisement - Login to hide

Runways

ID Width Length Bearing (true) Bearing (mag) Surface Threshold Offset Overrun Length
09 98 ft / 30 m 1,972 ft / 601 m 90.00° 96.29° Dirt 0 ft / 0 m 0 ft / 0 m
17 98 ft / 30 m 4,604 ft / 1,403 m 170.00° 176.29° Dirt 0 ft / 0 m 0 ft / 0 m
27 98 ft / 30 m 1,972 ft / 601 m 270.00° 276.29° Dirt 0 ft / 0 m 0 ft / 0 m
35 98 ft / 30 m 4,604 ft / 1,403 m 350.00° 356.29° Dirt 0 ft / 0 m 0 ft / 0 m

Map

Weather


0- 5 10 15 20 25 30 35+ Temperature / ° C

Clouds and Precipitation
Forecast for 2017-12-17 06:00 UTC. Updated an hour ago

Ground ~20,000 ft ~40,000 ft Winds

METAR

SAZA 170326Z 18017KT 2000 RA OVC030 21/20 Q0999

TAF

Not found
Warning: Do not use this data for real-world aviation or navigation. No guarantee of current accuracy is given.